Poindexter, Kentucky
Current Conditions -  °F | °C
As of 9:15 AM on Thursday 29 Jan 2015 (Local Time) from KIOB Reporting Station
Light Rain Light Rain  
Wind Chill: 33°   Ceiling: 6000
Heat Index: 41°   Visibility: 10mi
Dew Point: 32°   Wind: 14mph
Humidity: 70%   Direction: 220°SW
Pressure: 29.95"   Gusts: 23mph
Location:  38.4145°N, 84.2859°W
Report Text: KIOB 291415Z AUTO 22012G20KT 10SM -RA BKN060 OVC080 05/00 A2995 RMK AO2
Loading
Personal Weather Stations






























Interactive Weather Map New forecast layout! Learn more

10-Day Weather Forecast

Advertisements
Track Severe Weather on mobile